createdAt,value
2022-08-12T00:00:06.192Z,1.88
2022-08-12T00:02:03.633Z,1.58
2022-08-12T00:03:13.244Z,1.98
2022-08-12T00:04:42.384Z,1.52
2022-08-12T00:06:06.560Z,1.73
2022-08-12T00:07:31.915Z,2.03
2022-08-12T00:08:57.767Z,1.65
2022-08-12T00:10:21.193Z,1.60
2022-08-12T00:11:47.860Z,2.03
2022-08-12T00:13:14.513Z,1.77
2022-08-12T00:14:43.544Z,1.55
2022-08-12T00:16:06.792Z,1.75
2022-08-12T00:17:29.865Z,1.88
2022-08-12T00:18:53.249Z,1.45
2022-08-12T00:20:16.405Z,1.92
2022-08-12T00:21:40.991Z,1.85
2022-08-12T00:23:04.100Z,1.58
2022-08-12T00:24:29.483Z,1.67
2022-08-12T00:26:20.834Z,1.90
2022-08-12T00:27:48.002Z,1.85
2022-08-12T00:29:14.307Z,1.30
2022-08-12T00:30:37.319Z,1.50
2022-08-12T00:32:01.520Z,1.80
2022-08-12T00:33:25.636Z,1.75
2022-08-12T00:34:57.299Z,1.95
2022-08-12T00:36:35.258Z,1.50
2022-08-12T00:37:59.366Z,1.95
2022-08-12T00:39:22.851Z,2.25
2022-08-12T00:40:47.724Z,1.33
2022-08-12T00:42:12.331Z,1.40
2022-08-12T00:43:17.995Z,1.50
2022-08-12T00:44:26.247Z,1.20
2022-08-12T00:45:52.406Z,1.40
2022-08-12T00:47:02.875Z,1.58
2022-08-12T00:48:07.266Z,1.08
2022-08-12T00:49:11.627Z,1.60
2022-08-12T00:50:20.340Z,1.55
2022-08-12T00:51:45.731Z,1.85
2022-08-12T00:52:53.552Z,1.45
2022-08-12T00:53:57.462Z,1.30
2022-08-12T00:55:05.638Z,1.63
2022-08-12T00:56:11.021Z,1.38
2022-08-12T00:57:29.046Z,1.40
2022-08-12T00:58:35.077Z,1.67
2022-08-12T00:59:47.479Z,1.73
2022-08-12T01:00:53.371Z,1.38
2022-08-12T01:02:11.543Z,1.63
2022-08-12T01:03:20.716Z,1.27
2022-08-12T01:04:48.582Z,1.60
2022-08-12T01:06:14.041Z,1.40
2022-08-12T01:07:37.978Z,1.65
2022-08-12T01:09:00.671Z,1.33
2022-08-12T01:10:27.587Z,1.48
2022-08-12T01:11:36.604Z,1.55
2022-08-12T01:12:43.293Z,1.55
2022-08-12T01:13:50.116Z,1.55
2022-08-12T01:14:55.264Z,1.50
2022-08-12T01:16:08.296Z,1.70
2022-08-12T01:17:13.082Z,1.55
2022-08-12T01:18:20.940Z,1.80
2022-08-12T01:19:26.292Z,1.52
2022-08-12T01:21:12.223Z,1.60
2022-08-12T01:23:12.356Z,1.83
2022-08-12T01:24:50.034Z,1.73
2022-08-12T01:25:57.758Z,1.60
2022-08-12T01:27:07.682Z,1.92
2022-08-12T01:28:14.762Z,1.50
2022-08-12T01:29:34.744Z,1.52
2022-08-12T01:30:43.032Z,1.25
2022-08-12T01:31:52.422Z,1.40
2022-08-12T01:32:59.528Z,1.25
2022-08-12T01:34:28.623Z,1.30
2022-08-12T01:35:36.860Z,1.50
2022-08-12T01:36:50.551Z,1.50
2022-08-12T01:38:02.864Z,1.40
2022-08-12T01:39:09.104Z,1.23
2022-08-12T01:40:35.602Z,1.40
2022-08-12T01:41:53.724Z,1.40
2022-08-12T01:43:21.817Z,1.40
2022-08-12T01:44:29.378Z,1.58
2022-08-12T01:45:42.946Z,1.55
2022-08-12T01:47:19.347Z,1.50
2022-08-12T01:49:00.559Z,1.90
2022-08-12T01:50:37.204Z,1.80
2022-08-12T01:52:21.410Z,1.63
2022-08-12T01:53:13.689Z,1.30
2022-08-12T01:54:19.773Z,1.42
2022-08-12T01:55:30.371Z,1.33
2022-08-12T01:57:13.220Z,1.27
2022-08-12T01:58:26.696Z,1.20
2022-08-12T02:00:00.454Z,1.20
2022-08-12T02:01:13.392Z,1.40
2022-08-12T02:02:30.845Z,1.50
2022-08-12T02:03:53.296Z,1.30
2022-08-12T02:05:44.278Z,1.38
2022-08-12T02:07:18.884Z,1.98
2022-08-12T02:08:55.908Z,1.17
2022-08-12T02:10:50.270Z,1.65
2022-08-12T02:12:03.068Z,1.40
2022-08-12T02:13:48.457Z,1.30
2022-08-12T02:15:50.430Z,1.65
2022-08-12T02:17:55.119Z,1.17
2022-08-12T02:19:27.906Z,1.20
2022-08-12T02:20:52.462Z,1.42
2022-08-12T02:22:37.324Z,1.02
2022-08-12T02:23:42.778Z,1.23
2022-08-12T02:24:50.169Z,1.90
2022-08-12T02:26:01.636Z,1.58
2022-08-12T02:27:09.104Z,1.30
2022-08-12T02:28:13.371Z,1.52
2022-08-12T02:29:19.484Z,1.73
2022-08-12T02:30:41.184Z,1.55
2022-08-12T02:31:48.375Z,1.80
2022-08-12T02:32:54.631Z,1.40
2022-08-12T02:34:01.588Z,1.52
2022-08-12T02:35:15.046Z,1.67
2022-08-12T02:36:19.330Z,1.70
2022-08-12T02:37:28.855Z,1.83
2022-08-12T02:38:34.095Z,1.40
2022-08-12T02:39:45.483Z,1.13
2022-08-12T02:40:55.196Z,1.70
2022-08-12T02:42:06.882Z,1.60
2022-08-12T02:43:34.970Z,1.55
2022-08-12T02:44:45.024Z,1.42
2022-08-12T02:46:15.128Z,1.30
2022-08-12T02:47:59.672Z,1.40
2022-08-12T02:49:17.797Z,1.48
2022-08-12T02:50:29.143Z,1.20
2022-08-12T02:51:41.784Z,1.58
2022-08-12T02:52:47.691Z,1.60
2022-08-12T02:54:05.732Z,1.60
2022-08-12T02:55:34.268Z,1.25
2022-08-12T02:56:50.432Z,1.48
2022-08-12T02:57:57.546Z,1.75
2022-08-12T02:59:02.329Z,1.13
2022-08-12T03:00:08.124Z,1.40
2022-08-12T03:01:14.121Z,1.70
2022-08-12T03:02:24.019Z,1.63
2022-08-12T03:03:33.440Z,1.42
2022-08-12T03:04:45.731Z,1.45
2022-08-12T03:06:01.839Z,1.38
2022-08-12T03:07:56.439Z,1.60
2022-08-12T03:08:59.188Z,1.63
2022-08-12T03:10:16.170Z,1.58
2022-08-12T03:11:42.311Z,1.33
2022-08-12T03:12:57.802Z,1.60
2022-08-12T03:14:02.997Z,1.70
2022-08-12T03:15:13.400Z,1.45
2022-08-12T03:16:18.633Z,1.60
2022-08-12T03:17:36.726Z,1.20
2022-08-12T03:18:46.198Z,1.25
2022-08-12T03:20:10.365Z,1.70
2022-08-12T03:21:55.334Z,1.40
2022-08-12T03:22:45.703Z,1.60
2022-08-12T03:23:49.557Z,1.65
2022-08-12T03:24:57.637Z,1.70
2022-08-12T03:26:03.343Z,1.50
2022-08-12T03:27:11.800Z,1.40
2022-08-12T03:28:35.712Z,1.70
2022-08-12T03:29:50.044Z,2.00
2022-08-12T03:31:01.693Z,1.50
2022-08-12T03:32:07.712Z,1.65
2022-08-12T03:33:38.784Z,1.73
2022-08-12T03:34:45.825Z,1.85
2022-08-12T03:35:53.398Z,1.65
2022-08-12T03:37:00.458Z,1.75
2022-08-12T03:38:09.608Z,1.80
2022-08-12T03:39:18.893Z,2.13
2022-08-12T03:40:48.962Z,1.40
2022-08-12T03:42:28.301Z,1.30
2022-08-12T03:44:03.352Z,1.70
2022-08-12T03:45:53.006Z,1.83
2022-08-12T03:47:43.371Z,1.50
2022-08-12T03:49:06.359Z,1.70
2022-08-12T03:50:29.447Z,1.77
2022-08-12T03:51:51.753Z,2.00
2022-08-12T03:53:15.761Z,1.50
2022-08-12T03:54:42.498Z,1.42
2022-08-12T03:56:05.218Z,1.73
2022-08-12T03:57:27.712Z,1.65
2022-08-12T03:58:50.357Z,1.52
2022-08-12T04:00:13.071Z,1.90
2022-08-12T04:01:28.492Z,1.90
2022-08-12T04:02:34.943Z,2.60
2022-08-12T04:03:55.341Z,2.40
2022-08-12T04:04:59.350Z,1.73
2022-08-12T04:06:03.572Z,1.33
2022-08-12T04:07:10.057Z,1.80
2022-08-12T04:08:14.850Z,1.88
2022-08-12T04:09:22.408Z,1.30
2022-08-12T04:10:50.850Z,1.30
2022-08-12T04:12:13.425Z,2.08
2022-08-12T04:13:25.686Z,1.73
2022-08-12T04:14:29.720Z,1.88
2022-08-12T04:15:34.195Z,1.80
2022-08-12T04:16:39.204Z,2.63
2022-08-12T04:18:06.520Z,1.30
2022-08-12T04:19:08.468Z,2.38
2022-08-12T04:20:13.685Z,1.50
2022-08-12T04:21:17.997Z,2.53
2022-08-12T04:22:25.484Z,2.28
2022-08-12T04:23:32.062Z,1.38
2022-08-12T04:24:36.776Z,1.98
2022-08-12T04:25:45.203Z,1.63
2022-08-12T04:26:49.698Z,2.20
2022-08-12T04:27:55.269Z,1.38
2022-08-12T04:29:00.556Z,1.77
2022-08-12T04:30:17.043Z,1.88
2022-08-12T04:31:37.178Z,1.13
2022-08-12T04:32:44.416Z,1.58
2022-08-12T04:33:48.885Z,1.75
2022-08-12T04:34:53.760Z,1.77
2022-08-12T04:35:57.636Z,2.28
2022-08-12T04:37:01.508Z,1.70
2022-08-12T04:38:06.177Z,1.67
2022-08-12T04:39:12.647Z,1.92
2022-08-12T04:40:17.498Z,2.20
2022-08-12T04:41:33.693Z,1.80
2022-08-12T04:42:37.778Z,1.70
2022-08-12T04:44:01.293Z,1.92
2022-08-12T04:45:07.864Z,2.13
2022-08-12T04:46:12.541Z,2.03
2022-08-12T04:47:17.581Z,2.38
2022-08-12T04:48:21.565Z,1.95
2022-08-12T04:49:27.171Z,1.83
2022-08-12T04:50:36.062Z,1.58
2022-08-12T04:51:41.872Z,1.60
2022-08-12T04:52:57.568Z,1.50
2022-08-12T04:54:04.848Z,2.00
2022-08-12T04:55:10.749Z,1.83
2022-08-12T04:56:16.748Z,1.85
2022-08-12T04:57:20.737Z,1.50
2022-08-12T04:58:29.781Z,2.05
2022-08-12T04:59:46.733Z,1.55
2022-08-12T05:00:53.227Z,1.98
2022-08-12T05:01:57.755Z,1.85
2022-08-12T05:03:01.867Z,1.65
2022-08-12T05:04:09.626Z,1.60
2022-08-12T05:05:24.953Z,2.47
2022-08-12T05:06:28.971Z,1.80
2022-08-12T05:07:34.228Z,2.03
2022-08-12T05:08:50.778Z,2.15
2022-08-12T05:10:00.824Z,1.98
2022-08-12T05:11:07.719Z,1.90
2022-08-12T05:12:12.962Z,1.95
2022-08-12T05:13:21.128Z,1.90
2022-08-12T05:14:25.213Z,1.70
2022-08-12T05:15:29.776Z,2.20
2022-08-12T05:16:37.426Z,2.05
2022-08-12T05:17:43.189Z,2.15
2022-08-12T05:18:47.899Z,2.00
2022-08-12T05:19:51.982Z,1.77
2022-08-12T05:20:59.038Z,2.03
2022-08-12T05:22:03.391Z,1.90
2022-08-12T05:23:16.289Z,2.33
2022-08-12T05:24:20.198Z,3.15
2022-08-12T05:25:24.189Z,2.40
2022-08-12T05:26:29.753Z,2.22
2022-08-12T05:27:36.363Z,2.47
2022-08-12T05:28:41.458Z,2.75
2022-08-12T05:30:06.982Z,2.55
2022-08-12T05:31:12.846Z,2.15
2022-08-12T05:32:20.963Z,2.50
2022-08-12T05:33:35.931Z,2.85
2022-08-12T05:34:39.906Z,2.40
2022-08-12T05:35:47.925Z,2.50
2022-08-12T05:36:51.726Z,2.30
2022-08-12T05:38:16.067Z,1.98
2022-08-12T05:39:19.948Z,1.88
2022-08-12T05:40:24.731Z,2.08
2022-08-12T05:41:33.041Z,2.17
2022-08-12T05:42:37.260Z,2.08
2022-08-12T05:43:41.053Z,2.63
2022-08-12T05:44:45.022Z,1.80
2022-08-12T05:45:52.381Z,2.20
2022-08-12T05:46:56.303Z,2.45
2022-08-12T05:48:00.533Z,2.38
2022-08-12T05:49:06.761Z,2.35
2022-08-12T05:50:11.482Z,1.67
2022-08-12T05:51:19.164Z,1.80
2022-08-12T05:52:23.193Z,2.67
2022-08-12T05:53:27.186Z,2.40
2022-08-12T05:54:54.658Z,2.95
2022-08-12T05:55:55.022Z,2.08
2022-08-12T05:56:58.813Z,2.13
2022-08-12T05:58:05.063Z,2.13
2022-08-12T05:59:11.500Z,2.00
2022-08-12T06:00:17.634Z,1.70
2022-08-12T06:02:09.011Z,2.20
2022-08-12T06:02:49.578Z,2.35
2022-08-12T06:03:54.390Z,2.63
2022-08-12T06:05:00.499Z,2.17
2022-08-12T06:06:07.332Z,2.28
2022-08-12T06:07:59.175Z,1.60
2022-08-12T06:08:37.208Z,2.50
2022-08-12T06:09:40.997Z,1.98
2022-08-12T06:10:50.359Z,2.10
2022-08-12T06:12:05.662Z,2.20
2022-08-12T06:13:11.492Z,2.70
2022-08-12T06:14:15.840Z,2.22
2022-08-12T06:15:21.573Z,2.42
2022-08-12T06:16:26.346Z,3.33
2022-08-12T06:17:31.415Z,3.42
2022-08-12T06:18:35.622Z,3.20
2022-08-12T06:20:27.770Z,3.10
2022-08-12T06:21:03.687Z,3.50
2022-08-12T06:22:07.985Z,3.50
2022-08-12T06:23:12.132Z,3.38
2022-08-12T06:24:20.213Z,3.45
2022-08-12T06:25:28.332Z,3.42
2022-08-12T06:26:34.834Z,4.55
2022-08-12T06:28:07.915Z,3.45
2022-08-12T06:30:06.749Z,3.78
2022-08-12T06:31:08.660Z,3.03
2022-08-12T06:32:12.867Z,3.30
2022-08-12T06:33:22.952Z,3.10
2022-08-12T06:35:24.144Z,3.38
2022-08-12T06:35:58.719Z,3.00
2022-08-12T06:37:05.420Z,3.30
2022-08-12T06:38:19.347Z,2.55
2022-08-12T06:39:24.447Z,3.28
2022-08-12T06:40:47.144Z,2.63
2022-08-12T06:42:42.091Z,2.70
2022-08-12T06:44:06.629Z,2.78
2022-08-12T06:44:58.518Z,2.25
2022-08-12T06:46:05.387Z,2.97
2022-08-12T06:47:10.285Z,3.10
2022-08-12T06:48:14.418Z,2.92
2022-08-12T06:49:19.315Z,3.13
2022-08-12T06:50:24.418Z,2.72
2022-08-12T06:51:32.329Z,3.00
2022-08-12T06:52:36.860Z,2.63
2022-08-12T06:53:44.032Z,3.17
2022-08-12T06:54:47.940Z,3.25
2022-08-12T06:55:57.816Z,3.40
2022-08-12T06:57:04.845Z,3.58
2022-08-12T06:58:20.631Z,3.50
2022-08-12T06:59:24.818Z,4.07
2022-08-12T07:00:34.498Z,3.90
2022-08-12T07:01:38.904Z,4.38
2022-08-12T07:02:43.578Z,4.13
2022-08-12T07:03:48.652Z,3.58
2022-08-12T07:04:55.347Z,4.38
2022-08-12T07:06:10.512Z,3.72
2022-08-12T07:07:15.475Z,3.92
2022-08-12T07:08:21.183Z,3.70
2022-08-12T07:10:03.787Z,3.13
2022-08-12T07:10:57.542Z,3.03
2022-08-12T07:12:01.579Z,3.67
2022-08-12T07:13:05.862Z,4.68
2022-08-12T07:14:14.264Z,4.38
2022-08-12T07:15:20.474Z,4.45
2022-08-12T07:16:46.441Z,4.28
2022-08-12T07:18:01.126Z,4.15
2022-08-12T07:19:05.206Z,4.32
2022-08-12T07:20:29.606Z,3.70
2022-08-12T07:21:59.875Z,4.47
2022-08-12T07:23:06.685Z,3.83
2022-08-12T07:24:11.048Z,4.05
2022-08-12T07:25:37.376Z,4.57
2022-08-12T07:26:45.235Z,3.60
2022-08-12T07:27:55.347Z,3.78
2022-08-12T07:28:59.239Z,4.00
2022-08-12T07:30:05.300Z,4.18
2022-08-12T07:31:17.197Z,4.15
2022-08-12T07:32:25.962Z,4.00
2022-08-12T07:33:33.960Z,4.32
2022-08-12T07:34:37.917Z,4.47
2022-08-12T07:35:45.741Z,4.32
2022-08-12T07:36:49.702Z,4.03
2022-08-12T07:37:54.320Z,3.22
2022-08-12T07:38:58.038Z,3.65
2022-08-12T07:40:02.797Z,3.42
2022-08-12T07:41:22.456Z,3.45
2022-08-12T07:42:26.865Z,3.92
2022-08-12T07:43:33.673Z,3.35
2022-08-12T07:44:37.876Z,3.72
2022-08-12T07:45:41.836Z,3.72
2022-08-12T07:46:45.843Z,3.92
2022-08-12T07:47:52.377Z,3.10
2022-08-12T07:49:00.326Z,2.80
2022-08-12T07:50:09.405Z,3.22
2022-08-12T07:51:25.314Z,3.88
2022-08-12T07:52:30.654Z,3.63
2022-08-12T07:53:49.111Z,3.70
2022-08-12T07:55:01.399Z,2.85
2022-08-12T07:56:09.867Z,3.33
2022-08-12T07:57:15.709Z,3.83
2022-08-12T07:58:19.741Z,3.15
2022-08-12T07:59:24.304Z,3.83
2022-08-12T08:00:34.504Z,3.25
2022-08-12T08:01:39.447Z,3.25
2022-08-12T08:02:43.397Z,3.50
2022-08-12T08:04:12.960Z,3.55
2022-08-12T08:05:19.762Z,2.95
2022-08-12T08:06:25.074Z,3.08
2022-08-12T08:07:30.676Z,2.80
2022-08-12T08:08:35.036Z,2.55
2022-08-12T08:09:39.524Z,2.20
2022-08-12T08:10:45.470Z,2.30
2022-08-12T08:12:08.770Z,2.00
2022-08-12T08:13:14.086Z,3.03
2022-08-12T08:14:18.167Z,2.88
2022-08-12T08:16:03.121Z,2.60
2022-08-12T08:17:03.736Z,2.70
2022-08-12T08:18:13.284Z,2.60
2022-08-12T08:19:24.343Z,2.92
2022-08-12T08:20:34.212Z,2.75
2022-08-12T08:21:38.021Z,2.75
2022-08-12T08:22:42.722Z,2.47
2022-08-12T08:24:05.567Z,2.55
2022-08-12T08:25:34.428Z,2.30
2022-08-12T08:26:35.463Z,2.97
2022-08-12T08:27:49.775Z,2.20
2022-08-12T08:28:54.117Z,2.15
2022-08-12T08:29:58.113Z,2.70
2022-08-12T08:31:02.435Z,2.10
2022-08-12T08:32:09.784Z,1.50
2022-08-12T08:33:24.547Z,2.03
2022-08-12T08:34:55.084Z,2.03
2022-08-12T08:36:00.131Z,2.47
2022-08-12T08:37:07.740Z,2.38
2022-08-12T08:38:31.880Z,2.03
2022-08-12T08:39:36.493Z,2.72
2022-08-12T08:41:03.050Z,1.88
2022-08-12T08:42:26.145Z,2.08
2022-08-12T08:43:44.028Z,2.45
2022-08-12T08:44:58.489Z,2.55
2022-08-12T08:46:06.023Z,2.22
2022-08-12T08:47:13.810Z,2.13
2022-08-12T08:48:18.968Z,2.40
2022-08-12T08:49:25.904Z,2.47
2022-08-12T08:50:30.381Z,2.00
2022-08-12T08:51:35.447Z,2.42
2022-08-12T08:52:45.557Z,2.80
2022-08-12T08:53:52.807Z,2.35
2022-08-12T08:54:56.983Z,1.83
2022-08-12T08:56:04.932Z,2.13
2022-08-12T08:57:09.752Z,2.50
2022-08-12T08:58:13.545Z,1.92
2022-08-12T08:59:20.300Z,2.40
2022-08-12T09:00:24.238Z,2.38
2022-08-12T09:02:58.630Z,2.30
2022-08-12T09:05:07.959Z,2.05
2022-08-12T09:06:59.789Z,2.85
2022-08-12T09:08:14.175Z,1.98
2022-08-12T09:09:21.695Z,2.10
2022-08-12T09:10:30.986Z,2.13
2022-08-12T09:12:10.940Z,1.73
2022-08-12T09:14:12.336Z,1.75
2022-08-12T09:15:01.619Z,1.73
2022-08-12T09:16:21.435Z,1.90
2022-08-12T09:17:27.088Z,1.88
2022-08-12T09:18:47.285Z,1.80
2022-08-12T09:19:57.501Z,1.85
2022-08-12T09:23:59.454Z,2.00
2022-08-12T09:25:07.583Z,1.88
2022-08-12T09:26:11.621Z,1.80
2022-08-12T09:27:17.666Z,1.95
2022-08-12T09:30:11.489Z,1.92
2022-08-12T09:32:07.652Z,2.00
2022-08-12T09:33:04.281Z,1.75
2022-08-12T09:34:29.455Z,2.30
2022-08-12T09:35:42.922Z,1.80
2022-08-12T09:37:00.118Z,1.70
2022-08-12T09:38:05.638Z,2.03
2022-08-12T09:40:01.717Z,2.00
2022-08-12T09:42:09.646Z,2.10
2022-08-12T09:42:54.363Z,1.90
2022-08-12T09:44:39.202Z,1.95
2022-08-12T09:46:19.570Z,2.15
2022-08-12T09:47:13.049Z,2.30
2022-08-12T09:48:22.280Z,2.25
2022-08-12T09:49:26.384Z,2.10
2022-08-12T09:50:31.006Z,2.60
2022-08-12T09:51:38.405Z,2.13
2022-08-12T09:52:54.354Z,2.35
2022-08-12T09:54:08.479Z,2.00
2022-08-12T09:56:07.359Z,2.28
2022-08-12T09:56:59.208Z,2.50
2022-08-12T09:58:07.358Z,2.03
2022-08-12T10:00:17.900Z,2.22
2022-08-12T10:00:55.388Z,2.55
2022-08-12T10:02:45.637Z,1.90
2022-08-12T10:03:32.602Z,2.00
2022-08-12T10:04:45.716Z,2.10
2022-08-12T10:06:28.023Z,2.38
2022-08-12T10:07:24.925Z,2.30
2022-08-12T10:08:33.197Z,2.13
2022-08-12T10:09:57.408Z,1.85
2022-08-12T10:11:24.614Z,2.67
2022-08-12T10:13:07.167Z,2.22
2022-08-12T10:14:13.433Z,2.30
2022-08-12T10:16:02.552Z,2.60
2022-08-12T10:16:44.496Z,2.22
2022-08-12T10:18:06.114Z,2.47
2022-08-12T10:19:17.175Z,2.60
2022-08-12T10:20:21.649Z,2.42
2022-08-12T10:21:36.513Z,2.67
2022-08-12T10:22:41.766Z,2.35
2022-08-12T10:23:51.531Z,1.90
2022-08-12T10:25:18.226Z,1.95
2022-08-12T10:26:41.740Z,2.17
2022-08-12T10:28:09.046Z,2.58
2022-08-12T10:30:37.235Z,1.70
2022-08-12T10:31:01.628Z,2.03
2022-08-12T10:32:21.987Z,2.40
2022-08-12T10:33:55.050Z,2.10
2022-08-12T10:35:05.249Z,2.50
2022-08-12T10:36:09.265Z,2.10
2022-08-12T10:38:10.625Z,2.55
2022-08-12T10:38:41.069Z,1.90
2022-08-12T10:40:03.199Z,2.55
2022-08-12T10:41:57.919Z,3.10
2022-08-12T10:43:12.712Z,2.13
2022-08-12T10:44:20.947Z,2.33
2022-08-12T10:45:30.340Z,2.35
2022-08-12T10:46:35.402Z,2.42
2022-08-12T10:48:07.287Z,1.95
2022-08-12T10:49:06.916Z,1.73
2022-08-12T10:50:33.901Z,2.13
2022-08-12T10:52:04.006Z,2.75
2022-08-12T10:53:21.591Z,2.30
2022-08-12T10:54:51.113Z,2.30
2022-08-12T10:55:56.469Z,2.30
2022-08-12T10:57:01.615Z,2.22
2022-08-12T10:58:15.402Z,2.40
2022-08-12T11:00:29.769Z,2.25
2022-08-12T11:04:14.153Z,1.58
2022-08-12T11:04:22.642Z,2.20
2022-08-12T11:04:25.444Z,2.20
2022-08-12T11:07:03.012Z,2.08
2022-08-12T11:07:09.190Z,2.10
2022-08-12T11:08:38.923Z,2.60
2022-08-12T11:09:54.326Z,2.05
2022-08-12T11:10:55.669Z,2.40
2022-08-12T11:12:35.434Z,2.65
2022-08-12T11:13:46.301Z,1.98
2022-08-12T11:14:53.611Z,1.52
2022-08-12T11:16:04.014Z,2.13
2022-08-12T11:17:43.606Z,1.90
2022-08-12T11:18:46.923Z,2.03
2022-08-12T11:19:59.422Z,1.98
2022-08-12T11:21:06.348Z,1.65
2022-08-12T11:22:12.481Z,2.60
2022-08-12T11:23:25.633Z,1.80
2022-08-12T11:24:39.777Z,1.75
2022-08-12T11:25:57.592Z,1.90
2022-08-12T11:27:11.019Z,2.28
2022-08-12T11:28:16.805Z,2.28
2022-08-12T11:29:24.053Z,2.53
2022-08-12T11:30:31.635Z,2.00
2022-08-12T11:31:56.090Z,2.03
2022-08-12T11:33:00.310Z,2.72
2022-08-12T11:34:51.907Z,2.92
2022-08-12T11:35:29.557Z,2.53
2022-08-12T11:36:33.530Z,2.60
2022-08-12T11:37:58.839Z,1.83
2022-08-12T11:39:05.386Z,2.33
2022-08-12T11:40:10.239Z,2.45
2022-08-12T11:41:15.810Z,2.30
2022-08-12T11:42:19.787Z,2.42
2022-08-12T11:43:50.499Z,2.33
2022-08-12T11:45:00.276Z,2.47
2022-08-12T11:46:04.343Z,2.03
2022-08-12T11:47:09.667Z,2.20
2022-08-12T11:48:15.320Z,2.30
2022-08-12T11:49:30.492Z,2.10
2022-08-12T11:50:35.895Z,1.85
2022-08-12T11:51:45.970Z,2.83
2022-08-12T11:53:01.749Z,2.10
2022-08-12T11:54:07.371Z,2.15
2022-08-12T11:55:23.262Z,2.83
2022-08-12T11:56:38.186Z,2.80
2022-08-12T11:58:40.575Z,2.63
2022-08-12T12:02:10.368Z,2.38
2022-08-12T12:03:17.323Z,2.20
2022-08-12T12:04:25.890Z,2.70
2022-08-12T12:05:41.659Z,2.25
2022-08-12T12:06:46.093Z,2.05
2022-08-12T12:08:38.613Z,1.85
2022-08-12T12:09:21.191Z,2.33
2022-08-12T12:10:26.851Z,2.63
2022-08-12T12:11:48.940Z,2.13
2022-08-12T12:12:53.713Z,2.38
2022-08-12T12:14:07.414Z,2.30
2022-08-12T12:15:15.178Z,2.72
2022-08-12T12:16:29.966Z,2.65
2022-08-12T12:17:40.594Z,2.60
2022-08-12T12:18:45.555Z,2.10
2022-08-12T12:19:49.372Z,2.70
2022-08-12T12:20:58.550Z,2.33
2022-08-12T12:22:02.439Z,2.00
2022-08-12T12:23:06.735Z,2.40
2022-08-12T12:24:31.258Z,2.33
2022-08-12T12:26:06.711Z,2.10
2022-08-12T12:26:59.601Z,1.77
2022-08-12T12:28:06.111Z,2.45
2022-08-12T12:30:18.439Z,1.92
2022-08-12T12:30:36.125Z,2.35
2022-08-12T12:32:11.904Z,2.17
2022-08-12T12:33:07.542Z,2.45
2022-08-12T12:34:30.225Z,1.95
2022-08-12T12:36:18.660Z,1.92
2022-08-12T12:37:00.866Z,1.83
2022-08-12T12:38:12.041Z,1.92
2022-08-12T12:39:16.545Z,2.35
2022-08-12T12:40:29.843Z,2.10
2022-08-12T12:42:42.073Z,2.40
2022-08-12T12:43:05.180Z,2.35
2022-08-12T12:44:13.263Z,2.30
2022-08-12T12:45:33.435Z,2.20
2022-08-12T12:46:37.979Z,2.60
2022-08-12T12:47:57.565Z,2.30
2022-08-12T12:49:01.569Z,2.10
2022-08-12T12:50:35.538Z,1.90
2022-08-12T12:51:56.448Z,2.05
2022-08-12T12:53:04.621Z,2.20
2022-08-12T12:54:10.712Z,2.08
2022-08-12T12:55:16.880Z,1.80
2022-08-12T12:56:34.231Z,2.30
2022-08-12T12:58:00.255Z,2.13
2022-08-12T12:59:06.223Z,1.80
2022-08-12T13:00:17.814Z,2.00
2022-08-12T13:01:31.821Z,2.08
2022-08-12T13:02:40.584Z,1.70
2022-08-12T13:03:49.060Z,2.08
2022-08-12T13:04:54.033Z,2.03
2022-08-12T13:06:00.822Z,1.88
2022-08-12T13:07:05.902Z,1.95
2022-08-12T13:08:27.998Z,1.92
2022-08-12T13:09:36.219Z,2.30
2022-08-12T13:10:51.039Z,2.05
2022-08-12T13:11:55.428Z,1.63
2022-08-12T13:14:07.632Z,1.80
2022-08-12T13:14:28.185Z,1.63
2022-08-12T13:15:45.497Z,2.22
2022-08-12T13:16:52.619Z,2.15
2022-08-12T13:18:05.807Z,1.95
2022-08-12T13:19:10.131Z,2.17
2022-08-12T13:20:38.161Z,1.45
2022-08-12T13:22:00.741Z,2.17
2022-08-12T13:23:37.338Z,1.92
2022-08-12T13:24:31.684Z,1.90
2022-08-12T13:25:36.721Z,1.90
2022-08-12T13:26:41.293Z,1.75
2022-08-12T13:27:48.588Z,1.52
2022-08-12T13:28:55.892Z,1.65
2022-08-12T13:30:03.859Z,2.15
2022-08-12T13:31:08.850Z,2.08
2022-08-12T13:32:19.795Z,1.60
2022-08-12T13:34:32.909Z,1.90
2022-08-12T13:35:04.738Z,2.13
2022-08-12T13:36:23.645Z,1.92
2022-08-12T13:37:28.285Z,1.77
2022-08-12T13:38:54.467Z,1.92
2022-08-12T13:39:58.750Z,2.08
2022-08-12T13:41:04.252Z,1.77
2022-08-12T13:42:17.048Z,1.83
2022-08-12T13:43:40.921Z,1.65
2022-08-12T13:44:46.180Z,2.05
2022-08-12T13:45:51.692Z,2.00
2022-08-12T13:46:58.990Z,1.98
2022-08-12T13:48:06.947Z,1.75
2022-08-12T13:49:17.308Z,1.52
2022-08-12T13:50:43.413Z,2.10
2022-08-12T13:51:53.152Z,2.13
2022-08-12T13:53:06.093Z,1.63
2022-08-12T13:54:10.495Z,1.40
2022-08-12T13:55:21.960Z,1.48
2022-08-12T13:56:35.576Z,1.40
2022-08-12T13:57:44.812Z,1.48
2022-08-12T13:58:52.671Z,1.58
2022-08-12T14:00:00.822Z,1.30
2022-08-12T14:01:08.920Z,1.60
2022-08-12T14:02:14.053Z,1.92
2022-08-12T14:03:28.290Z,1.35
2022-08-12T14:04:32.658Z,2.03
2022-08-12T14:05:38.973Z,1.50
2022-08-12T14:06:44.810Z,1.60
2022-08-12T14:08:06.261Z,2.28
2022-08-12T14:09:17.957Z,1.42
2022-08-12T14:10:50.534Z,1.80
2022-08-12T14:11:58.603Z,1.77
2022-08-12T14:13:16.974Z,1.65
2022-08-12T14:14:37.584Z,2.70
2022-08-12T14:15:57.935Z,2.00
2022-08-12T14:17:05.601Z,1.30
2022-08-12T14:18:24.253Z,1.77
2022-08-12T14:19:32.917Z,1.65
2022-08-12T14:20:41.806Z,1.70
2022-08-12T14:22:01.386Z,1.50
2022-08-12T14:24:00.917Z,2.33
2022-08-12T14:24:40.263Z,1.70
2022-08-12T14:25:45.423Z,1.85
2022-08-12T14:26:50.567Z,1.90
2022-08-12T14:28:06.744Z,2.05
2022-08-12T14:29:10.917Z,2.03
2022-08-12T14:30:35.389Z,1.90
2022-08-12T14:31:40.806Z,2.05
2022-08-12T14:32:47.161Z,2.10
2022-08-12T14:33:52.957Z,1.67
2022-08-12T14:34:58.459Z,1.98
2022-08-12T14:36:06.916Z,1.88
2022-08-12T14:37:14.755Z,1.70
2022-08-12T14:38:46.191Z,1.73
2022-08-12T14:39:50.691Z,2.40
2022-08-12T14:41:02.193Z,1.92
2022-08-12T14:42:07.888Z,1.73
2022-08-12T14:43:14.706Z,2.05
2022-08-12T14:44:57.369Z,1.85
2022-08-12T14:45:49.215Z,2.42
2022-08-12T14:46:57.056Z,1.85
2022-08-12T14:48:03.764Z,1.73
2022-08-12T14:49:27.491Z,1.50
2022-08-12T14:50:40.926Z,1.63
2022-08-12T14:52:43.944Z,1.30
2022-08-12T14:57:57.379Z,1.70
2022-08-12T14:59:23.268Z,1.90
2022-08-12T15:00:50.992Z,1.60
2022-08-12T15:01:59.816Z,2.28
2022-08-12T15:03:04.422Z,2.20
2022-08-12T15:04:14.429Z,1.73
2022-08-12T15:06:06.142Z,2.00
2022-08-12T15:06:52.490Z,1.40
2022-08-12T15:08:04.655Z,2.05
2022-08-12T15:09:11.993Z,1.42
2022-08-12T15:10:30.088Z,2.58
2022-08-12T15:11:55.131Z,1.95
2022-08-12T15:13:07.556Z,1.73
2022-08-12T15:14:13.825Z,2.47
2022-08-12T15:15:21.674Z,2.05
2022-08-12T15:16:29.618Z,1.90
2022-08-12T15:17:38.613Z,2.08
2022-08-12T15:18:50.621Z,2.05
2022-08-12T15:20:33.220Z,2.33
2022-08-12T15:21:24.903Z,2.40
2022-08-12T15:22:37.135Z,2.17
2022-08-12T15:23:45.531Z,2.45
2022-08-12T15:24:59.134Z,2.15
2022-08-12T15:26:11.717Z,2.53
2022-08-12T15:28:03.279Z,1.75
2022-08-12T15:28:54.253Z,2.00
2022-08-12T15:29:58.319Z,2.17
2022-08-12T15:31:21.340Z,2.55
2022-08-12T15:32:32.895Z,2.13
2022-08-12T15:33:44.994Z,2.45
2022-08-12T15:34:50.322Z,2.00
2022-08-12T15:35:58.466Z,2.05
2022-08-12T15:37:09.261Z,2.00
2022-08-12T15:38:19.552Z,2.35
2022-08-12T15:39:23.753Z,2.08
2022-08-12T15:40:33.463Z,2.38
2022-08-12T15:41:49.358Z,2.17
2022-08-12T15:42:57.166Z,2.00
2022-08-12T15:44:36.673Z,1.70
2022-08-12T15:45:25.287Z,2.08
2022-08-12T15:46:32.215Z,2.17
2022-08-12T15:47:48.187Z,2.20
2022-08-12T15:48:54.742Z,2.38
2022-08-12T15:50:01.715Z,2.85
2022-08-12T15:51:09.254Z,2.28
2022-08-12T15:52:23.520Z,2.33
2022-08-12T15:53:53.445Z,2.22
2022-08-12T15:55:05.013Z,2.60
2022-08-12T15:56:12.604Z,2.40
2022-08-12T15:57:19.635Z,2.00
2022-08-12T15:58:27.165Z,2.08
2022-08-12T15:59:51.248Z,2.33
2022-08-12T16:00:59.698Z,2.22
2022-08-12T16:02:03.870Z,2.20
2022-08-12T16:03:13.459Z,2.33
2022-08-12T16:04:19.043Z,2.53
2022-08-12T16:06:19.227Z,2.10
2022-08-12T16:07:05.486Z,2.50
2022-08-12T16:08:18.434Z,2.47
2022-08-12T16:09:56.132Z,2.58
2022-08-12T16:10:48.413Z,2.85
2022-08-12T16:11:52.368Z,3.08
2022-08-12T16:13:04.717Z,2.63
2022-08-12T16:14:10.525Z,2.70
2022-08-12T16:15:19.015Z,2.22
2022-08-12T16:16:27.709Z,2.47
2022-08-12T16:18:14.897Z,2.63
2022-08-12T16:19:01.931Z,2.47
2022-08-12T16:20:12.330Z,3.15
2022-08-12T16:21:51.257Z,2.53
2022-08-12T16:22:43.587Z,2.63
2022-08-12T16:23:57.778Z,2.97
2022-08-12T16:25:03.845Z,2.50
2022-08-12T16:26:15.259Z,2.85
2022-08-12T16:27:25.716Z,2.45
2022-08-12T16:28:32.013Z,3.75
2022-08-12T16:29:52.273Z,2.50
2022-08-12T16:30:57.661Z,2.22
2022-08-12T16:32:03.546Z,2.83
2022-08-12T16:33:19.040Z,2.67
2022-08-12T16:34:25.794Z,2.90
2022-08-12T16:35:50.468Z,2.20